createdAt,value
2022-12-25T00:04:54.403Z,6.30
2022-12-25T00:07:23.060Z,6.30
2022-12-25T00:09:51.255Z,6.30
2022-12-25T00:33:22.022Z,6.30
2022-12-25T01:19:45.622Z,6.20
2022-12-25T01:22:14.220Z,6.20
2022-12-25T01:24:46.009Z,6.10
2022-12-25T01:27:40.767Z,6.10
2022-12-25T01:30:09.540Z,6.10
2022-12-25T01:49:17.344Z,6.10
2022-12-25T01:52:02.309Z,6.10
2022-12-25T01:54:41.732Z,6.10
2022-12-25T01:57:22.092Z,6.10
2022-12-25T01:59:50.193Z,6.10
2022-12-25T02:02:24.429Z,6.10
2022-12-25T02:05:45.986Z,6.10
2022-12-25T02:08:31.409Z,6.10
2022-12-25T02:11:00.425Z,6.10
2022-12-25T02:24:00.333Z,6.10
2022-12-25T02:27:56.339Z,6.10
2022-12-25T04:13:34.723Z,5.90
2022-12-25T04:23:05.792Z,5.80
2022-12-25T04:56:26.353Z,5.80
2022-12-25T04:58:56.032Z,5.80
2022-12-25T05:01:23.463Z,5.80
2022-12-25T05:03:52.405Z,5.80
2022-12-25T05:06:20.434Z,5.80
2022-12-25T05:08:48.098Z,5.80
2022-12-25T05:11:18.730Z,5.80
2022-12-25T05:13:46.424Z,5.80
2022-12-25T05:16:20.777Z,5.80
2022-12-25T05:18:51.180Z,5.80
2022-12-25T05:21:19.006Z,5.80
2022-12-25T05:57:54.041Z,5.80
2022-12-25T07:00:13.851Z,5.90
2022-12-25T08:25:09.245Z,6.20
2022-12-25T08:29:18.477Z,6.30
2022-12-25T08:58:23.695Z,6.60
2022-12-25T09:01:19.518Z,6.70
2022-12-25T09:03:47.631Z,6.70
2022-12-25T09:06:16.908Z,6.80
2022-12-25T09:08:49.320Z,6.80
2022-12-25T09:11:19.790Z,6.90
2022-12-25T09:13:48.657Z,7.00
2022-12-25T09:16:21.475Z,7.00
2022-12-25T09:18:49.816Z,7.10
2022-12-25T09:21:18.291Z,7.10
2022-12-25T09:23:46.014Z,7.20
2022-12-25T09:26:16.624Z,7.30
2022-12-25T09:28:50.690Z,7.30
2022-12-25T09:31:21.435Z,7.40
2022-12-25T09:33:50.005Z,7.40
2022-12-25T09:36:17.402Z,7.50
2022-12-25T09:38:44.807Z,7.50
2022-12-25T09:41:30.656Z,7.60
2022-12-25T09:44:11.556Z,7.60
2022-12-25T09:47:05.407Z,7.70
2022-12-25T09:50:03.463Z,7.70
2022-12-25T09:52:54.301Z,7.80
2022-12-25T09:55:26.658Z,7.80
2022-12-25T09:58:09.305Z,7.90
2022-12-25T10:00:46.207Z,7.90
2022-12-25T10:03:19.318Z,8.00
2022-12-25T10:06:23.184Z,8.10
2022-12-25T10:09:14.887Z,8.20
2022-12-25T10:12:23.808Z,8.20
2022-12-25T10:15:29.073Z,8.30
2022-12-25T10:17:59.218Z,8.30
2022-12-25T10:20:57.412Z,8.40
2022-12-25T10:23:53.079Z,8.40
2022-12-25T10:26:25.062Z,8.50
2022-12-25T10:29:01.605Z,8.50
2022-12-25T10:31:34.283Z,8.60
2022-12-25T10:34:03.216Z,8.60
2022-12-25T10:36:31.965Z,8.70
2022-12-25T10:39:48.954Z,8.70
2022-12-25T10:42:42.977Z,8.80
2022-12-25T10:45:10.859Z,8.90
2022-12-25T10:47:44.424Z,8.90
2022-12-25T10:50:25.615Z,8.90
2022-12-25T10:53:09.268Z,9.00
2022-12-25T10:55:36.447Z,9.10
2022-12-25T10:58:05.967Z,9.10
2022-12-25T11:00:33.707Z,9.20
2022-12-25T11:03:01.731Z,9.30
2022-12-25T11:05:32.920Z,9.30
2022-12-25T11:08:03.290Z,9.40
2022-12-25T11:10:42.537Z,9.40
2022-12-25T11:13:25.073Z,9.50
2022-12-25T11:16:04.122Z,9.60
2022-12-25T11:18:46.391Z,9.70
2022-12-25T11:21:26.351Z,9.70
2022-12-25T11:24:20.731Z,9.80
2022-12-25T11:26:51.925Z,9.90
2022-12-25T11:29:40.158Z,10.00
2022-12-25T11:32:21.956Z,10.20
2022-12-25T11:34:51.231Z,10.30
2022-12-25T11:37:32.842Z,10.40
2022-12-25T11:40:00.552Z,10.50
2022-12-25T11:42:39.874Z,10.50
2022-12-25T11:45:17.556Z,10.60
2022-12-25T11:47:57.681Z,10.70
2022-12-25T11:50:55.686Z,10.80
2022-12-25T11:53:51.120Z,10.80
2022-12-25T11:56:24.344Z,11.00
2022-12-25T11:59:24.181Z,11.10
2022-12-25T12:08:56.745Z,11.30
2022-12-25T12:11:41.025Z,11.30
2022-12-25T12:14:35.562Z,11.30
2022-12-25T12:17:04.956Z,11.40
2022-12-25T12:25:19.083Z,11.50
2022-12-25T12:27:59.900Z,11.50
2022-12-25T12:30:35.850Z,11.60
2022-12-25T12:33:18.581Z,11.70
2022-12-25T12:35:46.471Z,11.70
2022-12-25T12:38:23.123Z,11.80
2022-12-25T12:41:08.292Z,11.90
2022-12-25T12:44:03.013Z,12.00
2022-12-25T12:46:39.884Z,12.00
2022-12-25T12:49:34.130Z,12.10
2022-12-25T12:52:25.071Z,12.20
2022-12-25T12:55:03.227Z,12.20
2022-12-25T12:57:39.235Z,12.30
2022-12-25T13:00:15.527Z,12.30
2022-12-25T13:03:20.034Z,12.30
2022-12-25T13:06:22.556Z,12.30
2022-12-25T13:09:36.837Z,12.30
2022-12-25T13:12:09.047Z,12.30
2022-12-25T13:14:38.098Z,12.30
2022-12-25T13:17:10.300Z,12.20
2022-12-25T13:19:44.211Z,12.20
2022-12-25T13:22:26.357Z,12.20
2022-12-25T13:25:00.610Z,12.00
2022-12-25T13:27:31.866Z,11.80
2022-12-25T13:30:00.273Z,11.80
2022-12-25T13:32:33.550Z,11.90
2022-12-25T13:35:59.271Z,11.90
2022-12-25T13:38:29.664Z,12.00
2022-12-25T13:56:39.938Z,11.90
2022-12-25T13:59:38.648Z,11.90
2022-12-25T14:02:28.590Z,11.80
2022-12-25T14:04:56.270Z,11.80
2022-12-25T14:11:20.902Z,11.70
2022-12-25T14:13:54.277Z,11.70
2022-12-25T14:16:23.337Z,11.70
2022-12-25T14:19:00.581Z,11.60
2022-12-25T14:21:50.466Z,11.60
2022-12-25T14:24:45.470Z,11.60
2022-12-25T14:28:40.056Z,11.50
2022-12-25T14:31:42.476Z,11.50
2022-12-25T14:34:23.638Z,11.40
2022-12-25T14:36:53.500Z,11.30
2022-12-25T14:39:39.136Z,11.20
2022-12-25T14:42:26.414Z,11.20
2022-12-25T14:46:10.857Z,11.10
2022-12-25T14:49:01.170Z,11.10
2022-12-25T14:52:18.091Z,10.90
2022-12-25T14:54:49.796Z,10.80
2022-12-25T14:57:31.137Z,10.70
2022-12-25T15:00:20.302Z,10.60
2022-12-25T15:02:50.439Z,10.50
2022-12-25T15:05:39.009Z,10.40
2022-12-25T15:08:09.706Z,10.30
2022-12-25T15:13:32.030Z,10.10
2022-12-25T15:16:06.068Z,10.10
2022-12-25T15:18:41.352Z,10.00
2022-12-25T15:21:26.355Z,9.90
2022-12-25T15:23:59.938Z,9.80
2022-12-25T15:26:34.597Z,9.70
2022-12-25T15:30:44.835Z,9.60
2022-12-25T15:33:19.162Z,9.60
2022-12-25T15:36:13.938Z,9.50
2022-12-25T15:38:41.714Z,9.40
2022-12-25T15:44:59.740Z,9.20
2022-12-25T15:47:26.816Z,9.10
2022-12-25T15:49:54.166Z,9.00
2022-12-25T15:52:21.241Z,9.00
2022-12-25T15:54:48.850Z,8.90
2022-12-25T15:57:22.788Z,8.80
2022-12-25T15:59:50.217Z,8.70
2022-12-25T16:02:20.921Z,8.70
2022-12-25T16:04:50.893Z,8.60
2022-12-25T16:07:24.752Z,8.50
2022-12-25T16:09:52.536Z,8.50
2022-12-25T16:12:20.187Z,8.40
2022-12-25T16:14:47.559Z,8.40
2022-12-25T16:17:15.679Z,8.40
2022-12-25T16:19:44.741Z,8.30
2022-12-25T16:22:18.518Z,8.20
2022-12-25T16:24:46.014Z,8.20
2022-12-25T16:27:14.088Z,8.10
2022-12-25T16:29:42.271Z,8.10
2022-12-25T16:32:12.539Z,8.00
2022-12-25T16:34:40.868Z,8.00
2022-12-25T16:37:08.547Z,7.90
2022-12-25T16:39:37.008Z,7.90
2022-12-25T16:42:04.494Z,7.90
2022-12-25T16:44:31.967Z,7.80
2022-12-25T16:46:59.189Z,7.80
2022-12-25T16:49:26.675Z,7.80
2022-12-25T16:51:53.803Z,7.70
2022-12-25T16:55:13.773Z,7.70
2022-12-25T16:57:43.585Z,7.60
2022-12-25T17:00:12.772Z,7.60
2022-12-25T17:02:40.900Z,7.50
2022-12-25T17:05:09.297Z,7.50
2022-12-25T17:07:37.760Z,7.40
2022-12-25T17:10:09.896Z,7.40
2022-12-25T17:12:52.632Z,7.40
2022-12-25T17:15:20.150Z,7.40
2022-12-25T17:17:47.213Z,7.40
2022-12-25T17:20:14.823Z,7.30
2022-12-25T17:22:41.913Z,7.30
2022-12-25T17:25:09.690Z,7.30
2022-12-25T17:27:36.781Z,7.20
2022-12-25T17:30:04.876Z,7.20
2022-12-25T17:32:32.045Z,7.20
2022-12-25T17:34:59.521Z,7.20
2022-12-25T17:37:27.019Z,7.10
2022-12-25T17:39:54.415Z,7.10
2022-12-25T17:42:21.454Z,7.00
2022-12-25T17:44:49.191Z,7.00
2022-12-25T17:47:16.287Z,7.00
2022-12-25T17:49:43.733Z,7.00
2022-12-25T17:52:10.835Z,6.90
2022-12-25T17:54:40.489Z,6.90
2022-12-25T17:57:07.574Z,6.80
2022-12-25T17:59:34.963Z,6.80
2022-12-25T18:02:02.993Z,6.70
2022-12-25T18:04:30.392Z,6.70
2022-12-25T18:06:57.539Z,6.60
2022-12-25T18:09:24.964Z,6.60
2022-12-25T18:11:52.012Z,6.50
2022-12-25T18:14:19.406Z,6.50
2022-12-25T18:16:46.979Z,6.40
2022-12-25T18:19:15.564Z,6.40
2022-12-25T18:21:42.774Z,6.40
2022-12-25T18:24:11.220Z,6.40
2022-12-25T18:26:38.392Z,6.40
2022-12-25T18:29:07.096Z,6.40
2022-12-25T18:31:34.463Z,6.40
2022-12-25T18:34:02.925Z,6.40
2022-12-25T18:36:30.810Z,6.30
2022-12-25T18:38:59.441Z,6.30
2022-12-25T18:41:28.657Z,6.30
2022-12-25T18:43:56.883Z,6.30
2022-12-25T18:46:26.818Z,6.30
2022-12-25T18:48:57.229Z,6.30
2022-12-25T18:51:26.749Z,6.20
2022-12-25T18:53:58.675Z,6.20
2022-12-25T18:56:25.762Z,6.20
2022-12-25T18:58:53.093Z,6.20
2022-12-25T19:01:23.974Z,6.10
2022-12-25T19:03:56.068Z,6.10
2022-12-25T19:06:32.719Z,6.10
2022-12-25T19:09:00.185Z,6.10
2022-12-25T19:11:27.256Z,6.10
2022-12-25T19:13:54.579Z,6.10
2022-12-25T19:16:21.655Z,6.10
2022-12-25T19:18:49.034Z,6.00
2022-12-25T19:21:16.288Z,6.00
2022-12-25T19:23:44.380Z,6.00
2022-12-25T19:26:12.179Z,6.00
2022-12-25T19:28:40.844Z,6.00
2022-12-25T19:31:10.009Z,6.00
2022-12-25T19:33:41.720Z,6.00
2022-12-25T19:36:14.229Z,6.00
2022-12-25T19:38:42.768Z,5.90
2022-12-25T19:41:18.680Z,5.90
2022-12-25T19:43:49.215Z,5.90
2022-12-25T19:46:33.494Z,5.90
2022-12-25T19:49:04.616Z,5.80
2022-12-25T19:51:39.936Z,5.80
2022-12-25T19:54:07.949Z,5.80
2022-12-25T19:56:35.246Z,5.80
2022-12-25T19:59:02.960Z,5.80
2022-12-25T20:01:30.903Z,5.80
2022-12-25T20:03:58.970Z,5.80
2022-12-25T20:06:33.455Z,5.80
2022-12-25T20:09:06.199Z,5.80
2022-12-25T20:11:36.126Z,5.80
2022-12-25T20:14:05.544Z,5.80
2022-12-25T20:16:35.604Z,5.70
2022-12-25T20:19:03.635Z,5.70
2022-12-25T20:21:30.893Z,5.70
2022-12-25T20:23:58.782Z,5.60
2022-12-25T20:26:29.805Z,5.60
2022-12-25T20:28:58.500Z,5.60
2022-12-25T20:31:32.487Z,5.60
2022-12-25T20:34:10.973Z,5.60
2022-12-25T20:36:38.486Z,5.60
2022-12-25T20:39:09.859Z,5.60
2022-12-25T20:41:38.873Z,5.60
2022-12-25T20:44:10.302Z,5.50
2022-12-25T20:46:37.837Z,5.50
2022-12-25T20:49:06.040Z,5.50
2022-12-25T20:51:33.300Z,5.50
2022-12-25T20:54:01.085Z,5.50
2022-12-25T20:56:29.950Z,5.50
2022-12-25T20:58:59.993Z,5.50
2022-12-25T21:01:30.992Z,5.40
2022-12-25T21:03:59.306Z,5.40
2022-12-25T21:06:26.892Z,5.40
2022-12-25T21:08:54.331Z,5.40
2022-12-25T21:11:21.928Z,5.30
2022-12-25T21:13:50.244Z,5.30
2022-12-25T21:16:22.145Z,5.30
2022-12-25T21:18:52.932Z,5.30
2022-12-25T21:21:21.711Z,5.30
2022-12-25T21:23:49.365Z,5.30
2022-12-25T21:26:20.841Z,5.20
2022-12-25T21:28:51.483Z,5.20
2022-12-25T21:31:19.606Z,5.10
2022-12-25T21:33:53.196Z,5.10
2022-12-25T21:36:28.473Z,5.10
2022-12-25T21:39:01.570Z,5.00
2022-12-25T21:41:32.020Z,5.00
2022-12-25T21:43:59.958Z,5.10
2022-12-25T21:46:28.697Z,5.10
2022-12-25T21:48:57.810Z,5.10
2022-12-25T21:51:51.209Z,5.10
2022-12-25T21:54:22.047Z,5.00
2022-12-25T21:56:50.097Z,5.00
2022-12-25T21:59:22.160Z,5.00
2022-12-25T22:01:52.334Z,5.00
2022-12-25T22:04:22.755Z,5.00
2022-12-25T22:07:09.197Z,5.00
2022-12-25T22:09:37.455Z,4.90
2022-12-25T22:12:28.543Z,4.90
2022-12-25T22:15:06.066Z,4.90
2022-12-25T22:18:02.024Z,4.90
2022-12-25T22:20:36.769Z,4.90
2022-12-25T22:23:05.221Z,4.90
2022-12-25T22:25:32.609Z,4.90
2022-12-25T22:28:00.260Z,4.90
2022-12-25T22:30:29.401Z,4.90
2022-12-25T22:32:57.143Z,4.90
2022-12-25T22:35:24.739Z,4.90
2022-12-25T22:37:53.350Z,4.90
2022-12-25T22:40:21.182Z,4.80
2022-12-25T22:42:48.626Z,4.80
2022-12-25T22:45:16.161Z,4.80
2022-12-25T22:47:43.397Z,4.80
2022-12-25T22:50:14.823Z,4.80
2022-12-25T22:52:43.302Z,4.80
2022-12-25T22:55:11.162Z,4.80
2022-12-25T22:57:38.912Z,4.80
2022-12-25T23:00:08.713Z,4.80
2022-12-25T23:02:36.054Z,4.70
2022-12-25T23:05:04.854Z,4.70
2022-12-25T23:07:32.375Z,4.70
2022-12-25T23:09:59.700Z,4.70
2022-12-25T23:12:45.447Z,4.70
2022-12-25T23:15:12.927Z,4.70
2022-12-25T23:17:58.595Z,4.70
2022-12-25T23:20:44.508Z,4.70
2022-12-25T23:23:34.992Z,4.70
2022-12-25T23:26:10.014Z,4.70
2022-12-25T23:28:58.714Z,4.70
2022-12-25T23:31:36.491Z,4.70
2022-12-25T23:34:06.008Z,4.70
2022-12-25T23:36:34.216Z,4.70
2022-12-25T23:39:08.937Z,4.70
2022-12-25T23:41:39.600Z,4.70
2022-12-25T23:44:07.842Z,4.70
2022-12-25T23:46:36.000Z,4.70
2022-12-25T23:49:04.360Z,4.70
2022-12-25T23:51:31.759Z,4.60
2022-12-25T23:53:58.832Z,4.60
2022-12-25T23:56:26.192Z,4.60
2022-12-25T23:58:53.236Z,4.60
